Terminal Aerodrome Forecast
Issued by NWS

Home | Current Version | Previous Version | Text Only | Print | Product List | Glossary Off
Versions: 1 2 3 4 5 6 7 8 9 10 11 12 13

113
FTUS45 KGGW 241727
TAFSDY
TAF
KSDY 241727Z 2418/2518 17005KT P6SM SKC
     FM242300 16008KT P6SM FEW200
     FM250300 14013KT P6SM SCT150
     FM250600 15011KT P6SM SCT120 WS020/18040KT
     FM251200 18008KT P6SM BKN090=

USA.gov is the U.S. government's official web portal to all federal, state and local government web resources and services.